Terminal Aerodrome Forecast
Issued by NWS

Home | Current Version | Previous Version | Text Only | Print | Product List | Glossary On
Versions: 1 2 3 4 5 6 7 8 9 10 11 12 13
000
FTUS42 KMLB 270500
TAFLEE
TAF
KLEE 270522Z 2706/2806 01004KT P6SM OVC040
     FM270900 02003KT 5SM BR BKN012 OVC020
      TEMPO 2710/2713 3SM BR OVC006
     FM271500 10005KT P6SM BKN035
     FM280200 06005KT 6SM BR BKN012 OVC030
      TEMPO 2804/2806 2SM BR OVC006=

USA.gov is the U.S. government's official web portal to all federal, state and local government web resources and services.